Details From PABT - Bettles
To PANI - Aniak
Flight Number -
Tags Generated
Created
Modified
Stats Distance 381 nm / 706 km
Max Altitude 0 ft / 0 m
Waypoints 3
Social Downloads 0
Likes 0
Share VATSIM

Download

Looking for another format? Having issues loading an existing format? Contact us
Advertisement - Login to hide

Notes

Generated

Route

PABT R0112 PANI

ID Type Via Altitude Latitude Longitude Leg Dist Tot Dist Heading (true) Name
O PABT APT - 0 ft / 0 m 66.90794˚ -151.53869˚ - 0 nm - -
R0112 FIX - 0 ft / 0 m 61.58585˚ -159.55777˚ 381 nm 381 nm 217° / 210° -
O PANI APT - 0 ft / 0 m 61.58585˚ -159.55777˚ 0 nm 381 nm 0° / 180° -

Altitude Profile

Advertisement - Login to hide

Weather


0- 5 10 15 20 25 30 35+ Temperature / ° C

Clouds and Precipitation
Forecast for 2018-05-25 00:00 UTC. Updated 5 hours ago

Ground ~20,000 ft ~40,000 ft Winds

PABT

Details ICAO PABT (BTT)
Name BETTLES
Region USA (Alaska)
Timezone America/Anchorage (UTC-8.0)
Stats Elevation 644 ft / 196 m (AMSL)
Location 66.913940° -151.529042°
Runways 1
Magnetic Variation 16.237° E

METAR

PABT 250253Z 31004KT 10SM FEW042 SCT080 16/02 A2960 RMK AO2 SLP031 T01610017 56007

Decode

TAF

PABT 242338Z 2500/2524 01005KT P6SM VCTS BKN040CB FM250400 VRB06KT P6SM -SHRA BKN035

Decode

Departure Runways

ID Width Length Bearing (true) Bearing (mag) Surface Threshold Offset Overrun Length
01 150 ft / 46 m 5,174 ft / 1,577 m 32.24° 16.00° Gravel 0 ft / 0 m 0 ft / 0 m
19 150 ft / 46 m 5,174 ft / 1,577 m 212.26° 196.02° Gravel 0 ft / 0 m 0 ft / 0 m

PANI

Details ICAO PANI (ANI)
Name ANIAK
Region USA (Alaska)
Timezone America/Anchorage (UTC-8.0)
Stats Elevation 88 ft / 27 m (AMSL)
Location 61.581597° -159.543045°
Runways 1
Magnetic Variation 12.408° E

METAR

PANI 250256Z AUTO 29004KT 10SM FEW035 12/03 A2969 RMK AO2 SLP023 T01220033 55006

Decode

TAF

Not found

Destination Runways

ID Width Length Bearing (true) Bearing (mag) Surface Threshold Offset Overrun Length
10 151 ft / 46 m 5,982 ft / 1,823 m 121.22° 108.81° Asphalt 0 ft / 0 m 0 ft / 0 m
28 151 ft / 46 m 5,982 ft / 1,823 m 301.24° 288.83° Asphalt 0 ft / 0 m 0 ft / 0 m

Approach Navaids

Runway Type Ident Frequency Range Bearing (true) Bearing (mag) Slope Elevation
10 Localiser IANI 109.70 MHz 18 nm / 33 km 121.25° 108.84° - 88 ft / 27 m (AMSL)
10 Glidescope IANI 109.70 MHz 10 nm / 19 km 121.23° 108.82° 3.00° 88 ft / 27 m (AMSL)
10 DME IANI 109.70 MHz 18 nm / 33 km - - - 88 ft / 27 m (AMSL)

Popular Alternatives